Time;durP1;ratioP1;P1;durP2;ratioP2;P2;SDS_P1;SDS_P2;PMS_P1;PMS_P2;Temp;Humidity;BMP_temperature;BMP_pressure;BME280_temperature;BME280_humidity;BME280_pressure;Samples;Min_cycle;Max_cycle;Signal;HPM_P1;HPM_P2
2023/10/13 00:01:18;;;;;;;8.80;4.93;;;;;;;19.89;68.53;100377.34;5069968;28;20434;-58
2023/10/13 00:03:44;;;;;;;7.07;4.47;;;;;;;19.89;68.25;100369.59;5059434;28;20429;-58
2023/10/13 00:06:10;;;;;;;9.43;4.40;;;;;;;19.89;68.57;100368.75;5051830;28;20530;-58
2023/10/13 00:08:36;;;;;;;12.03;5.20;;;;;;;19.89;68.44;100363.00;5063610;28;20622;-58
2023/10/13 00:11:02;;;;;;;10.90;4.90;;;;;;;19.88;68.84;100367.94;5055892;28;20487;-58
2023/10/13 00:13:29;;;;;;;10.50;4.67;;;;;;;19.89;68.68;100357.28;5051549;28;20473;-59
2023/10/13 00:15:58;;;;;;;15.60;4.90;;;;;;;19.88;68.45;100358.50;5053325;28;21008;-58
2023/10/13 00:18:32;;;;;;;8.90;4.87;;;;;;;19.89;68.50;100357.28;5069720;28;20429;-59
2023/10/13 00:20:58;;;;;;;8.37;4.60;;;;;;;19.88;68.39;100361.38;5071670;28;20505;-58
2023/10/13 00:23:26;;;;;;;6.57;3.87;;;;;;;19.89;68.39;100363.00;5069291;28;20429;-59
2023/10/13 00:25:58;;;;;;;7.00;4.47;;;;;;;19.88;68.43;100359.34;5059222;28;20269;-59
2023/10/13 00:28:35;;;;;;;9.00;4.27;;;;;;;19.87;68.02;100357.66;5062923;28;20521;-59
2023/10/13 00:31:01;;;;;;;8.03;4.63;;;;;;;19.88;68.22;100355.63;5059167;28;20449;-58
2023/10/13 00:33:26;;;;;;;13.67;4.77;;;;;;;19.87;68.45;100356.88;5069504;28;20561;-58
2023/10/13 00:35:53;;;;;;;12.23;4.60;;;;;;;19.86;68.54;100344.56;5052841;28;20176;-58
2023/10/13 00:38:19;;;;;;;8.23;3.70;;;;;;;19.87;67.85;100351.94;5056153;28;20274;-58
2023/10/13 00:40:51;;;;;;;7.97;4.60;;;;;;;19.86;68.36;100353.16;5050577;28;20430;-59
2023/10/13 00:45:56;;;;;;;7.67;4.47;;;;;;;19.86;67.70;100347.44;5056872;28;20433;-59
2023/10/13 00:48:29;;;;;;;9.70;4.63;;;;;;;19.85;68.18;100348.66;5058253;28;20449;-58
2023/10/13 00:51:02;;;;;;;7.07;4.37;;;;;;;19.86;68.60;100335.97;5050052;28;20403;-58
2023/10/13 00:53:28;;;;;;;6.13;3.93;;;;;;;19.85;68.84;100342.91;5054804;28;20454;-59
2023/10/13 00:55:55;;;;;;;7.00;4.10;;;;;;;19.86;68.66;100338.84;5061000;28;20430;-58
2023/10/13 00:58:22;;;;;;;10.27;5.00;;;;;;;19.86;68.61;100341.69;5049444;28;20418;-58
2023/10/13 01:00:56;;;;;;;9.33;4.47;;;;;;;19.85;67.93;100351.50;5053622;28;20442;-58
2023/10/13 01:03:26;;;;;;;7.17;4.33;;;;;;;19.85;68.48;100344.94;5050817;28;20473;-58
2023/10/13 01:05:55;;;;;;;10.30;4.17;;;;;;;19.85;68.67;100339.22;5054049;28;20471;-59
2023/10/13 01:08:39;;;;;;;7.37;4.20;;;;;;;19.85;68.39;100339.22;5068562;28;20441;-58
2023/10/13 01:11:07;;;;;;;6.70;4.13;;;;;;;19.84;68.47;100338.41;5070587;28;20425;-58
2023/10/13 01:13:36;;;;;;;8.30;4.00;;;;;;;19.84;68.62;100344.13;5069963;28;20465;-58
2023/10/13 01:16:07;;;;;;;7.57;4.40;;;;;;;19.85;68.80;100336.34;5070566;28;20394;-59
2023/10/13 01:18:39;;;;;;;6.20;4.07;;;;;;;19.84;68.67;100338.41;5066246;28;20441;-58
2023/10/13 01:21:06;;;;;;;6.50;4.27;;;;;;;19.84;68.62;100335.53;5070404;28;20784;-59
2023/10/13 01:23:37;;;;;;;8.13;4.40;;;;;;;19.84;67.69;100338.41;5065178;28;20417;-58
2023/10/13 01:26:05;;;;;;;7.47;4.33;;;;;;;19.84;68.54;100334.72;5067066;28;20429;-59
2023/10/13 01:28:37;;;;;;;6.10;4.20;;;;;;;19.84;68.43;100340.44;5050733;28;20422;-59
2023/10/13 01:31:08;;;;;;;9.40;4.03;;;;;;;19.85;68.39;100327.75;5055898;28;20440;-58
2023/10/13 01:33:34;;;;;;;7.90;4.07;;;;;;;19.84;67.90;100317.50;5070211;28;20988;-58
2023/10/13 01:36:06;;;;;;;11.00;4.60;;;;;;;19.84;67.87;100326.94;5069797;28;20425;-59
2023/10/13 01:38:33;;;;;;;8.40;4.50;;;;;;;19.83;67.45;100325.31;5069263;28;20195;-58
2023/10/13 01:40:59;;;;;;;8.90;4.27;;;;;;;19.82;68.39;100323.63;5067884;28;20442;-58
2023/10/13 01:43:24;;;;;;;5.90;3.90;;;;;;;19.83;68.06;100315.88;5058777;28;20544;-58
2023/10/13 01:45:50;;;;;;;7.57;4.33;;;;;;;19.83;67.63;100313.00;5050757;28;20198;-59
2023/10/13 01:48:18;;;;;;;9.73;4.20;;;;;;;19.83;68.28;100301.53;5048351;28;20195;-59
2023/10/13 01:50:52;;;;;;;8.50;4.50;;;;;;;19.83;68.63;100304.41;5062127;28;20183;-59
2023/10/13 01:53:19;;;;;;;9.17;4.70;;;;;;;19.82;68.50;100294.97;5058660;28;20458;-59
2023/10/13 01:55:44;;;;;;;9.67;4.43;;;;;;;19.83;68.65;100290.09;5062430;28;20632;-58
2023/10/13 01:58:22;;;;;;;5.50;4.03;;;;;;;19.82;68.60;100288.44;5068334;28;20441;-58
2023/10/13 02:00:48;;;;;;;6.63;3.87;;;;;;;19.82;68.50;100282.72;5059683;28;20536;-58
2023/10/13 02:03:17;;;;;;;7.23;4.40;;;;;;;19.82;68.42;100289.25;5050452;28;20410;-58
2023/10/13 02:05:48;;;;;;;5.93;4.00;;;;;;;19.83;68.49;100284.34;5050769;28;20226;-59
2023/10/13 02:08:22;;;;;;;9.50;4.43;;;;;;;19.81;68.52;100276.16;5050099;28;20444;-58
2023/10/13 02:10:48;;;;;;;5.70;3.63;;;;;;;19.81;68.58;100273.28;5049726;28;20448;-59
2023/10/13 02:13:17;;;;;;;7.20;4.10;;;;;;;19.82;68.52;100272.06;5052743;28;20486;-59
2023/10/13 02:15:47;;;;;;;7.10;4.03;;;;;;;19.81;68.38;100270.41;5049414;28;20258;-59
2023/10/13 02:18:51;;;;;;;9.63;4.20;;;;;;;19.82;68.33;100269.19;5054247;28;20433;-58
2023/10/13 02:21:14;;;;;;;10.00;3.93;;;;;;;19.82;68.39;100266.34;5049785;28;20473;-59
2023/10/13 02:23:46;;;;;;;7.43;4.13;;;;;;;19.83;68.27;100272.91;5072477;28;20422;-59
2023/10/13 02:26:21;;;;;;;6.80;3.80;;;;;;;19.82;68.25;100263.47;5065875;28;20439;-58
2023/10/13 02:28:51;;;;;;;6.80;4.47;;;;;;;19.82;68.45;100254.88;5059116;28;20888;-58
2023/10/13 02:31:19;;;;;;;7.77;4.20;;;;;;;19.81;68.46;100258.97;5056789;28;20498;-59
2023/10/13 02:33:44;;;;;;;6.93;4.00;;;;;;;19.81;68.48;100253.22;5070158;28;20452;-58
2023/10/13 02:36:12;;;;;;;6.70;4.23;;;;;;;19.81;68.38;100256.09;5056620;28;20444;-59
2023/10/13 02:41:18;;;;;;;8.30;4.50;;;;;;;19.81;68.59;100256.09;5057916;28;20433;-59
2023/10/13 02:43:44;;;;;;;7.50;4.30;;;;;;;19.81;68.70;100244.63;5055004;28;20416;-58
2023/10/13 02:46:09;;;;;;;10.33;4.40;;;;;;;19.81;68.54;100241.75;5061018;28;20437;-58
2023/10/13 02:48:42;;;;;;;5.47;3.57;;;;;;;19.81;68.64;100238.09;5057879;28;20183;-58
2023/10/13 02:51:15;;;;;;;8.20;4.23;;;;;;;19.80;68.40;100243.00;5056055;28;20248;-59
2023/10/13 02:53:49;;;;;;;7.50;3.70;;;;;;;19.81;68.51;100241.75;5057911;28;20551;-58
2023/10/13 02:56:20;;;;;;;6.10;3.90;;;;;;;19.80;68.79;100242.16;5072437;28;20879;-58
2023/10/13 02:58:53;;;;;;;6.83;3.90;;;;;;;19.80;68.68;100240.13;5067150;28;20809;-58
2023/10/13 03:01:19;;;;;;;8.30;4.27;;;;;;;19.81;68.51;100238.09;5055783;28;20421;-58
2023/10/13 03:03:51;;;;;;;5.40;3.90;;;;;;;19.81;68.32;100235.22;5058055;28;20885;-58
2023/10/13 03:06:17;;;;;;;7.53;3.87;;;;;;;19.81;68.44;100235.22;5058780;28;20876;-57
2023/10/13 03:08:43;;;;;;;6.57;3.90;;;;;;;19.81;68.38;100236.03;5075290;28;20433;-58
2023/10/13 03:11:13;;;;;;;6.40;4.03;;;;;;;19.80;68.48;100234.41;5074900;28;20429;-58
2023/10/13 03:13:44;;;;;;;7.70;3.53;;;;;;;19.81;68.58;100229.50;5075508;28;20248;-58
2023/10/13 03:16:16;;;;;;;7.50;4.00;;;;;;;19.79;68.51;100224.16;5075616;28;20424;-58
2023/10/13 03:18:56;;;;;;;7.03;3.57;;;;;;;19.80;68.72;100225.81;5065821;28;20440;-59
2023/10/13 03:21:29;;;;;;;6.57;4.17;;;;;;;19.79;68.55;100224.16;5061583;28;20437;-58
2023/10/13 03:23:55;;;;;;;6.50;4.30;;;;;;;19.79;68.41;100224.16;5070002;28;20509;-59
2023/10/13 03:26:21;;;;;;;6.43;3.93;;;;;;;19.79;68.50;100221.28;5074418;28;21048;-58
2023/10/13 03:28:52;;;;;;;6.87;3.57;;;;;;;19.79;68.23;100221.28;5071952;28;20429;-57
2023/10/13 03:31:23;;;;;;;6.33;4.10;;;;;;;19.78;68.40;100216.78;5067072;28;20279;-58
2023/10/13 03:33:49;;;;;;;6.63;3.90;;;;;;;19.79;68.22;100211.88;5070068;28;20903;-58
2023/10/13 03:36:56;;;;;;;7.70;4.00;;;;;;;19.79;68.16;100214.72;5063981;28;20928;-59
2023/10/13 03:39:00;;;;;;;6.87;3.80;;;;;;;19.78;68.21;100218.81;5057064;28;20587;-58
2023/10/13 03:41:30;;;;;;;5.97;3.60;;;;;;;19.79;68.27;100220.47;5053091;28;20422;-59
2023/10/13 03:44:07;;;;;;;8.23;4.67;;;;;;;19.78;68.08;100213.91;5056216;28;20184;-58
2023/10/13 03:46:36;;;;;;;7.87;4.00;;;;;;;19.78;67.99;100210.22;5066830;28;21111;-58
2023/10/13 03:49:02;;;;;;;7.50;4.10;;;;;;;19.77;67.75;100200.78;5052425;28;20491;-59
2023/10/13 03:51:31;;;;;;;8.73;4.20;;;;;;;19.77;67.84;100197.94;5061042;28;20438;-58
2023/10/13 03:53:56;;;;;;;7.23;3.80;;;;;;;19.77;67.67;100197.94;5060359;28;20457;-58
2023/10/13 03:56:28;;;;;;;8.03;4.10;;;;;;;19.77;67.56;100197.94;5071298;28;20538;-59
2023/10/13 03:59:06;;;;;;;7.90;4.10;;;;;;;19.77;67.68;100194.25;5069846;28;20179;-58
2023/10/13 04:01:47;;;;;;;8.10;4.23;;;;;;;19.76;67.68;100193.41;5071798;28;20440;-58
2023/10/13 04:04:15;;;;;;;7.57;4.10;;;;;;;19.75;67.62;100186.03;5071937;28;20545;-57
2023/10/13 04:17:22;;;;;;;6.10;3.67;;;;;;;19.76;67.47;100181.97;5053435;28;20996;-58
2023/10/13 04:25:35;;;;;;;7.77;4.00;;;;;;;19.75;67.45;100180.31;5071398;28;20414;-58
2023/10/13 04:30:57;;;;;;;9.00;4.30;;;;;;;19.75;67.35;100176.63;5069782;28;20449;-58
2023/10/13 04:41:36;;;;;;;6.77;4.17;;;;;;;19.74;67.10;100166.38;5061890;28;20445;-58
2023/10/13 04:44:05;;;;;;;11.80;4.00;;;;;;;19.74;67.15;100163.53;5070754;28;20505;-58
2023/10/13 04:47:41;;;;;;;7.90;3.63;;;;;;;19.74;67.02;100161.50;5068036;28;20429;-58
2023/10/13 04:49:35;;;;;;;10.73;4.73;;;;;;;19.74;67.05;100155.75;5045556;28;20433;-58
2023/10/13 04:54:45;;;;;;;8.50;4.50;;;;;;;19.73;67.29;100154.13;5051384;28;20462;-58
2023/10/13 05:51:43;;;;;;;8.40;4.33;;;;;;;19.70;66.22;100146.31;5065296;28;20445;-57
2023/10/13 06:29:46;;;;;;;8.80;4.93;;;;;;;19.69;66.03;100155.28;5061136;28;20465;-58
2023/10/13 06:32:12;;;;;;;8.90;4.50;;;;;;;19.69;65.91;100146.69;5050869;28;20425;-58
2023/10/13 06:34:42;;;;;;;8.40;4.60;;;;;;;19.69;65.86;100152.41;5052426;28;20538;-57
2023/10/13 06:37:22;;;;;;;6.77;4.30;;;;;;;19.69;65.96;100150.38;5062363;28;20932;-58
2023/10/13 06:39:51;;;;;;;7.57;4.40;;;;;;;19.68;65.95;100151.59;5057822;28;20430;-58
2023/10/13 06:42:19;;;;;;;8.60;4.17;;;;;;;19.68;66.12;100151.59;5055754;28;20438;-58
2023/10/13 06:44:48;;;;;;;6.70;3.97;;;;;;;19.68;65.61;100150.78;5054441;28;20429;-58
2023/10/13 06:47:13;;;;;;;7.17;4.13;;;;;;;19.68;65.53;100148.75;5056915;28;21162;-59
2023/10/13 06:49:43;;;;;;;9.43;4.27;;;;;;;19.68;65.73;100157.34;5058435;28;20472;-57
2023/10/13 06:52:11;;;;;;;6.97;4.47;;;;;;;19.68;65.53;100150.78;5057653;28;20183;-57
2023/10/13 06:54:39;;;;;;;8.73;4.23;;;;;;;19.67;65.98;100158.53;5058795;28;20468;-58
2023/10/13 06:57:06;;;;;;;9.77;4.90;;;;;;;19.67;65.57;100160.59;5055460;28;20448;-57
2023/10/13 06:59:36;;;;;;;11.67;4.60;;;;;;;19.67;65.75;100169.97;5050082;28;20445;-58
2023/10/13 07:02:08;;;;;;;7.27;4.80;;;;;;;19.69;65.97;100158.13;5055138;28;21066;-59
2023/10/13 07:04:34;;;;;;;7.97;4.37;;;;;;;19.67;65.07;100161.38;5061085;28;20437;-59
2023/10/13 07:07:00;;;;;;;10.97;4.70;;;;;;;19.65;64.68;100158.09;5055147;28;20983;-65
2023/10/13 07:12:06;;;;;;;10.57;4.97;;;;;;;19.65;64.18;100149.50;5055407;28;20449;-58
2023/10/13 07:14:36;;;;;;;12.60;4.50;;;;;;;19.70;63.41;100152.03;5048052;28;20484;-57
2023/10/13 07:17:04;;;;;;;17.70;5.90;;;;;;;19.75;64.49;100153.69;5061181;28;20441;-58
2023/10/13 07:19:30;;;;;;;13.60;4.67;;;;;;;19.83;64.35;100155.44;5048544;28;20485;-58
2023/10/13 07:21:59;;;;;;;17.47;4.70;;;;;;;19.89;64.77;100148.97;5049077;28;20465;-58
2023/10/13 07:24:32;;;;;;;17.00;5.13;;;;;;;19.90;64.59;100152.63;5051930;28;20289;-58
2023/10/13 07:27:05;;;;;;;18.50;5.10;;;;;;;19.87;65.10;100153.44;5069297;28;20435;-56
2023/10/13 07:29:33;;;;;;;11.60;5.90;;;;;;;19.98;65.40;100155.19;5061345;28;20437;-58
2023/10/13 07:32:02;;;;;;;16.33;4.63;;;;;;;20.02;65.37;100141.72;5058942;28;20468;-58
2023/10/13 07:34:32;;;;;;;17.67;6.43;;;;;;;20.07;65.27;100149.13;5059364;28;20490;-58
2023/10/13 07:37:00;;;;;;;12.93;5.33;;;;;;;20.04;64.94;100142.16;5070145;28;20413;-58
2023/10/13 07:39:33;;;;;;;8.40;4.23;;;;;;;20.04;64.75;100142.16;5062784;28;20433;-58
2023/10/13 07:42:05;;;;;;;15.07;5.73;;;;;;;20.01;64.69;100145.78;5056732;28;20442;-57
2023/10/13 07:44:45;;;;;;;17.10;4.87;;;;;;;20.02;64.18;100150.31;5058591;28;21074;-57
2023/10/13 07:47:11;;;;;;;10.07;4.30;;;;;;;20.01;63.92;100147.84;5056126;28;20425;-57
2023/10/13 07:49:37;;;;;;;15.40;5.00;;;;;;;20.02;62.89;100150.31;5060207;28;20476;-57
2023/10/13 07:54:49;;;;;;;13.03;4.57;;;;;;;20.26;62.36;100151.81;5063150;28;20466;-58
2023/10/13 07:57:15;;;;;;;15.83;5.80;;;;;;;20.29;63.08;100151.84;5050922;28;20424;-58
2023/10/13 07:59:47;;;;;;;20.20;5.27;;;;;;;20.22;62.91;100143.16;5066531;28;20465;-57
2023/10/13 08:02:15;;;;;;;11.40;4.60;;;;;;;20.18;62.34;100148.06;5055197;28;21026;-57
2023/10/13 08:04:40;;;;;;;16.07;4.87;;;;;;;20.16;62.24;100147.59;5053218;28;20434;-58
2023/10/13 08:07:15;;;;;;;9.17;4.27;;;;;;;20.17;63.19;100145.56;5057332;28;20444;-58
2023/10/13 08:09:41;;;;;;;11.20;4.50;;;;;;;20.20;62.50;100136.16;5056975;28;20911;-59
2023/10/13 08:12:11;;;;;;;6.60;3.63;;;;;;;20.23;63.10;100146.84;5068683;28;20444;-58
2023/10/13 08:14:38;;;;;;;17.77;5.03;;;;;;;20.19;62.98;100154.59;5067704;28;20294;-58
2023/10/13 08:17:07;;;;;;;9.87;4.30;;;;;;;20.16;63.01;100141.88;5064147;28;20460;-57
2023/10/13 08:45:53;;;;;;;11.50;4.23;;;;;;;20.11;63.03;100139.38;5061080;28;20523;-58
2023/10/13 08:50:55;;;;;;;11.83;5.60;;;;;;;20.09;62.41;100138.97;5056306;28;20962;-57
2023/10/13 08:56:15;;;;;;;13.30;6.17;;;;;;;20.07;62.52;100129.91;5050107;28;20448;-58
2023/10/13 09:07:21;;;;;;;18.13;7.77;;;;;;;20.16;61.83;100121.00;5056652;28;20995;-58
2023/10/13 09:12:20;;;;;;;17.13;7.73;;;;;;;20.23;62.43;100115.31;5048615;28;20425;-58
2023/10/13 09:14:58;;;;;;;19.43;7.07;;;;;;;20.26;62.71;100108.81;5054607;28;21183;-59
2023/10/13 09:17:35;;;;;;;18.37;7.73;;;;;;;20.23;62.99;100101.81;5048064;28;20446;-58
2023/10/13 09:20:32;;;;;;;18.00;8.40;;;;;;;20.24;62.64;100096.91;5057599;28;20512;-57
2023/10/13 09:25:34;;;;;;;19.80;7.33;;;;;;;20.30;61.43;100104.72;5059183;28;20436;-59
2023/10/13 09:28:00;;;;;;;22.13;6.77;;;;;;;20.32;59.72;100105.16;5060460;28;20433;-57
2023/10/13 09:30:28;;;;;;;16.83;6.17;;;;;;;20.28;59.08;100106.34;5056349;28;20463;-58
2023/10/13 09:33:08;;;;;;;19.90;7.70;;;;;;;20.28;59.43;100106.34;5049776;28;21040;-58
2023/10/13 09:35:36;;;;;;;19.80;6.03;;;;;;;20.25;59.04;100093.63;5052159;28;20515;-58
2023/10/13 09:38:02;;;;;;;14.10;6.37;;;;;;;20.22;59.06;100091.56;5061344;28;20532;-59
2023/10/13 09:40:46;;;;;;;13.73;5.37;;;;;;;20.23;59.54;100101.81;5061653;28;20438;-58
2023/10/13 09:43:15;;;;;;;10.23;5.23;;;;;;;20.26;58.17;100089.53;5053054;28;20188;-57
2023/10/13 09:45:43;;;;;;;9.67;4.67;;;;;;;20.28;57.94;100086.28;5053701;28;20494;-58
2023/10/13 09:48:21;;;;;;;14.67;5.43;;;;;;;20.24;58.42;100083.41;5049433;28;20443;-58
2023/10/13 09:50:48;;;;;;;11.40;5.03;;;;;;;20.26;57.79;100075.22;5049434;28;20960;-58
2023/10/13 09:53:18;;;;;;;12.40;5.00;;;;;;;20.26;58.00;100068.66;5052363;28;20535;-58
2023/10/13 09:56:13;;;;;;;16.43;5.90;;;;;;;20.27;57.96;100067.44;5059777;28;20489;-57
2023/10/13 09:58:47;;;;;;;11.30;4.90;;;;;;;20.28;57.88;100067.06;5049820;28;21039;-58
2023/10/13 10:01:20;;;;;;;11.97;4.40;;;;;;;20.33;57.21;100062.97;5051386;28;20417;-57
2023/10/13 10:06:30;;;;;;;17.30;5.80;;;;;;;20.55;56.31;100054.13;5053765;28;20544;-58
2023/10/13 10:09:14;;;;;;;9.67;4.33;;;;;;;20.76;55.61;100053.38;5052691;28;20433;-59
2023/10/13 10:12:18;;;;;;;13.43;4.17;;;;;;;20.80;55.12;100043.59;5060025;28;20191;-58
2023/10/13 10:15:20;;;;;;;16.57;3.33;;;;;;;20.78;55.11;100045.22;5055124;28;20561;-58
2023/10/13 10:17:45;;;;;;;9.30;3.90;;;;;;;20.86;53.50;100046.88;5059497;28;21468;-59
2023/10/13 10:20:20;;;;;;;9.23;3.83;;;;;;;20.92;52.71;100042.47;5057689;28;20489;-58
2023/10/13 10:23:00;;;;;;;10.33;3.90;;;;;;;20.93;52.19;100041.22;5045811;28;20199;-59
2023/10/13 10:25:34;;;;;;;10.63;3.50;;;;;;;20.92;52.26;100039.59;5060530;28;21874;-58
2023/10/13 10:28:01;;;;;;;10.00;3.40;;;;;;;20.97;51.36;100037.13;5056853;28;20473;-58
2023/10/13 10:30:29;;;;;;;12.17;3.97;;;;;;;21.04;50.78;100036.34;5053971;28;20425;-58
2023/10/13 10:33:08;;;;;;;9.93;3.83;;;;;;;21.07;50.31;100036.34;5048876;28;20899;-58
2023/10/13 10:35:33;;;;;;;11.33;3.43;;;;;;;21.06;50.87;100034.72;5053555;28;20417;-57
2023/10/13 10:38:11;;;;;;;10.10;3.97;;;;;;;21.16;50.12;100035.97;5057815;28;20858;-58
2023/10/13 10:40:58;;;;;;;9.70;3.20;;;;;;;21.25;49.26;100028.63;5056988;28;20654;-59
2023/10/13 10:43:47;;;;;;;9.67;3.90;;;;;;;21.34;48.95;100023.31;5055852;28;20476;-57
2023/10/13 10:46:17;;;;;;;8.70;3.30;;;;;;;21.36;48.51;100020.84;5052905;28;20422;-59
2023/10/13 10:48:43;;;;;;;10.23;3.63;;;;;;;21.41;48.64;100023.34;5040694;28;20464;-58
2023/10/13 10:51:31;;;;;;;10.33;3.77;;;;;;;21.40;48.23;100018.00;5053186;28;20433;-59
2023/10/13 10:53:57;;;;;;;12.17;3.47;;;;;;;21.46;48.15;100020.06;5052511;28;20380;-58
2023/10/13 10:56:36;;;;;;;10.30;4.40;;;;;;;21.43;48.91;100017.19;5052543;28;20426;-57
2023/10/13 10:59:04;;;;;;;9.30;3.77;;;;;;;21.45;48.54;100017.59;5054448;28;20433;-57
2023/10/13 11:01:39;;;;;;;14.60;3.57;;;;;;;21.40;49.22;100010.22;5063679;28;20440;-59
2023/10/13 11:04:14;;;;;;;7.80;3.60;;;;;;;21.46;49.98;100014.31;5060710;28;20436;-58
2023/10/13 11:06:47;;;;;;;15.77;3.90;;;;;;;21.50;49.22;100006.53;5058881;28;20428;-57
2023/10/13 11:09:27;;;;;;;8.87;3.43;;;;;;;;;;5057663;28;20433;-57
2023/10/13 11:11:57;;;;;;;17.90;4.47;;;;;;;;;;5058968;28;20952;-58
2023/10/13 11:14:24;;;;;;;8.70;3.40;;;;;;;21.24;49.89;99985.97;5055032;28;20477;-57
2023/10/13 11:17:00;;;;;;;11.73;3.67;;;;;;;21.04;51.38;99976.91;5050158;28;20430;-58
2023/10/13 11:19:43;;;;;;;12.47;3.80;;;;;;;20.95;51.94;99973.59;5049791;28;20550;-57
2023/10/13 11:22:36;;;;;;;8.93;3.30;;;;;;;20.97;52.06;99970.31;5060675;28;20882;-57
2023/10/13 11:25:11;;;;;;;9.30;3.83;;;;;;;20.96;52.14;99954.31;5053740;28;20434;-58
2023/10/13 11:30:20;;;;;;;19.07;4.47;;;;;;;20.92;53.21;99947.75;5056012;28;20457;-57
2023/10/13 11:32:58;;;;;;;9.43;3.80;;;;;;;20.90;53.32;99948.16;5060802;28;20884;-57
2023/10/13 11:35:24;;;;;;;7.87;3.20;;;;;;;20.87;53.08;99931.69;5057147;28;20469;-57
2023/10/13 11:38:03;;;;;;;7.03;3.93;;;;;;;20.86;53.40;99932.94;5055665;28;20452;-58
2023/10/13 11:40:43;;;;;;;6.93;3.43;;;;;;;20.90;53.27;99930.09;5051962;28;20175;-57
2023/10/13 11:43:23;;;;;;;9.67;4.53;;;;;;;20.93;52.81;99938.72;5059729;28;20787;-57
2023/10/13 11:46:00;;;;;;;10.17;4.07;;;;;;;20.90;52.99;99928.06;5055590;28;20449;-57
2023/10/13 11:48:39;;;;;;;9.80;3.23;;;;;;;20.89;53.31;99926.44;5060046;28;20425;-57
2023/10/13 11:51:08;;;;;;;8.90;3.33;;;;;;;20.90;53.59;99915.75;5062664;28;20508;-57
2023/10/13 11:53:37;;;;;;;8.13;3.77;;;;;;;20.81;54.66;99906.66;5065318;28;20461;-57
2023/10/13 11:56:11;;;;;;;11.20;3.73;;;;;;;20.79;55.25;99912.00;5067539;28;20440;-58
2023/10/13 11:58:40;;;;;;;10.43;3.80;;;;;;;20.76;54.89;99904.19;5057254;28;20436;-57
2023/10/13 12:01:20;;;;;;;7.10;3.73;;;;;;;20.73;55.70;99902.97;5062610;28;20453;-57
2023/10/13 12:12:00;;;;;;;10.27;3.70;;;;;;;20.71;57.03;99890.25;5044489;28;20413;-57
2023/10/13 12:14:32;;;;;;;7.67;3.10;;;;;;;20.70;56.71;99880.84;5067945;28;20487;-57
2023/10/13 12:17:03;;;;;;;7.90;3.37;;;;;;;20.70;56.36;99880.00;5051903;28;20426;-57
2023/10/13 12:19:29;;;;;;;5.80;3.43;;;;;;;20.68;56.17;99874.66;5063614;28;20977;-57
2023/10/13 12:21:55;;;;;;;6.00;3.50;;;;;;;20.65;57.20;99878.38;5054363;28;20422;-57
2023/10/13 12:27:02;;;;;;;8.80;3.30;;;;;;;20.66;56.72;99865.66;5055641;28;20222;-57
2023/10/13 12:29:28;;;;;;;11.83;4.10;;;;;;;20.68;56.37;99868.94;5052301;28;20430;-57
2023/10/13 12:32:12;;;;;;;8.83;3.50;;;;;;;20.67;57.54;99864.44;5063991;28;20437;-58
2023/10/13 12:51:21;;;;;;;6.47;3.33;;;;;;;20.64;58.25;99841.47;5062668;28;21289;-57
2023/10/13 12:53:50;;;;;;;5.60;3.00;;;;;;;20.64;58.15;99839.44;5056762;28;20465;-56
2023/10/13 12:56:15;;;;;;;14.57;3.77;;;;;;;20.66;58.28;99830.41;5055811;28;20499;-57
2023/10/13 12:58:41;;;;;;;11.50;4.07;;;;;;;20.63;58.22;99817.69;5062749;28;20433;-57
2023/10/13 13:01:07;;;;;;;7.20;2.90;;;;;;;20.63;58.22;99820.56;5053440;28;20191;-57
2023/10/13 13:03:33;;;;;;;7.33;3.30;;;;;;;20.68;58.01;99822.22;5064890;28;20179;-57
2023/10/13 13:05:59;;;;;;;6.50;3.23;;;;;;;20.70;58.48;99814.88;5064548;28;20183;-57
2023/10/13 13:08:24;;;;;;;9.43;3.60;;;;;;;20.71;57.98;99809.94;5061379;28;20266;-57
2023/10/13 13:10:51;;;;;;;5.90;2.87;;;;;;;20.70;58.70;99814.88;5057238;28;20179;-57
2023/10/13 13:13:24;;;;;;;8.57;3.50;;;;;;;20.69;58.91;99807.50;5058742;28;20270;-58
2023/10/13 13:15:49;;;;;;;7.80;4.13;;;;;;;20.68;58.53;99807.91;5055620;28;20917;-58
2023/10/13 13:18:15;;;;;;;11.57;3.50;;;;;;;20.70;58.54;99809.13;5062394;28;20515;-57
2023/10/13 13:20:52;;;;;;;7.30;3.40;;;;;;;20.70;59.13;99794.78;5061847;28;20219;-56
2023/10/13 13:23:18;;;;;;;8.33;3.07;;;;;;;20.68;59.12;99794.34;5058649;28;20214;-58
2023/10/13 13:25:45;;;;;;;9.23;3.27;;;;;;;20.71;58.04;99796.41;5063008;28;20784;-57
2023/10/13 13:28:11;;;;;;;11.03;3.90;;;;;;;20.70;58.56;99791.91;5055444;28;20434;-57
2023/10/13 13:30:37;;;;;;;8.23;2.97;;;;;;;20.71;58.61;99784.94;5057541;28;20513;-57
2023/10/13 13:33:09;;;;;;;10.87;4.07;;;;;;;20.71;58.10;99773.47;5062306;28;20194;-57
2023/10/13 13:35:35;;;;;;;10.47;3.93;;;;;;;20.73;58.58;99778.81;5058136;28;20456;-57
2023/10/13 13:38:09;;;;;;;6.37;3.00;;;;;;;20.70;58.41;99766.09;5052274;28;20481;-57
2023/10/13 13:40:37;;;;;;;9.10;3.70;;;;;;;20.70;58.90;99760.34;5069402;28;20206;-57
2023/10/13 13:43:02;;;;;;;9.67;3.40;;;;;;;20.67;59.05;99758.28;5060811;28;20901;-57
2023/10/13 13:45:28;;;;;;;6.80;2.70;;;;;;;20.65;59.54;99755.03;5050038;28;20550;-57
2023/10/13 13:47:53;;;;;;;11.70;3.13;;;;;;;20.63;60.12;99748.88;5066183;28;20178;-57
2023/10/13 13:50:31;;;;;;;10.77;3.10;;;;;;;20.63;60.18;99746.00;5058926;28;20179;-58
2023/10/13 13:52:57;;;;;;;8.17;3.70;;;;;;;20.62;60.22;99741.50;5052664;28;20289;-57
2023/10/13 13:55:23;;;;;;;6.10;3.20;;;;;;;20.64;60.35;99741.91;5054104;28;20955;-57
2023/10/13 13:57:50;;;;;;;7.83;2.90;;;;;;;20.63;60.40;99728.78;5062208;28;20190;-57
2023/10/13 14:00:19;;;;;;;12.23;3.77;;;;;;;20.63;60.32;99730.84;5052329;28;20773;-57
2023/10/13 14:02:47;;;;;;;12.50;3.33;;;;;;;20.63;60.32;99719.38;5055813;28;20452;-57
2023/10/13 14:05:16;;;;;;;6.43;3.23;;;;;;;20.63;60.41;99722.25;5065637;28;20472;-56
2023/10/13 14:07:50;;;;;;;6.77;3.30;;;;;;;20.63;60.63;99716.50;5063214;28;20448;-57
2023/10/13 14:10:31;;;;;;;11.03;4.47;;;;;;;20.62;59.74;99709.94;5061509;28;20480;-57
2023/10/13 14:13:06;;;;;;;6.40;3.10;;;;;;;20.67;58.62;99709.53;5059576;28;20866;-57
2023/10/13 14:15:40;;;;;;;7.27;2.90;;;;;;;20.68;58.49;99704.63;5049468;28;20512;-57
2023/10/13 14:18:07;;;;;;;6.90;3.03;;;;;;;20.66;58.55;99704.19;5060746;28;20447;-58
2023/10/13 14:20:39;;;;;;;13.27;3.17;;;;;;;20.67;59.00;99700.94;5051966;28;21194;-57
2023/10/13 14:23:07;;;;;;;9.20;3.03;;;;;;;20.69;58.10;99697.66;5056503;28;20426;-58
2023/10/13 14:25:37;;;;;;;7.07;3.27;;;;;;;20.66;57.97;99693.56;5055293;28;20488;-57
2023/10/13 14:28:05;;;;;;;6.97;3.20;;;;;;;20.68;57.63;99684.53;5051239;28;20528;-58
2023/10/13 14:30:31;;;;;;;9.37;3.10;;;;;;;20.72;57.31;99686.16;5053320;28;20793;-57
2023/10/13 14:32:58;;;;;;;7.63;3.73;;;;;;;20.70;57.30;99685.78;5047345;28;20433;-57
2023/10/13 14:35:25;;;;;;;12.00;3.37;;;;;;;20.67;57.12;99682.91;5061750;28;20210;-57
2023/10/13 14:37:51;;;;;;;7.60;3.70;;;;;;;20.65;58.18;99682.47;5052462;28;20442;-57
2023/10/13 14:40:21;;;;;;;8.30;3.20;;;;;;;20.61;58.94;99679.63;5054732;28;20548;-57
2023/10/13 14:42:50;;;;;;;7.43;3.13;;;;;;;20.62;59.01;99671.84;5061252;28;20437;-57
2023/10/13 14:45:18;;;;;;;7.40;3.23;;;;;;;20.62;58.89;99668.97;5054196;28;20516;-57
2023/10/13 14:47:44;;;;;;;9.53;3.87;;;;;;;20.59;59.39;99670.63;5063958;28;20534;-57
2023/10/13 14:50:19;;;;;;;7.50;3.40;;;;;;;20.59;59.00;99664.88;5066731;28;20784;-58
2023/10/13 14:52:48;;;;;;;6.70;3.33;;;;;;;20.60;58.87;99660.78;5063317;28;20230;-57
2023/10/13 14:55:21;;;;;;;7.83;2.87;;;;;;;20.59;59.60;99659.16;5054530;28;20469;-57
2023/10/13 14:57:47;;;;;;;6.37;2.90;;;;;;;20.60;59.07;99652.19;5062497;28;20441;-58
2023/10/13 15:00:14;;;;;;;9.60;3.10;;;;;;;20.58;59.44;99650.94;5054975;28;20434;-58
2023/10/13 15:02:42;;;;;;;6.13;3.07;;;;;;;20.59;59.82;99649.72;5048225;28;20872;-57
2023/10/13 15:05:16;;;;;;;7.63;3.07;;;;;;;20.59;59.28;99636.22;5055721;28;20540;-57
2023/10/13 15:07:45;;;;;;;11.83;3.60;;;;;;;20.57;59.53;99638.66;5057099;28;20527;-56
2023/10/13 15:10:19;;;;;;;4.80;3.00;;;;;;;20.58;59.08;99637.41;5064337;28;20794;-57
2023/10/13 15:12:44;;;;;;;5.23;2.57;;;;;;;20.58;60.24;99637.41;5053968;28;20909;-57